createdAt,value
2023-04-13T00:00:31.598Z,38.23
2023-04-13T00:01:35.378Z,40.17
2023-04-13T00:02:39.436Z,42.30
2023-04-13T00:03:45.249Z,38.30
2023-04-13T00:04:49.070Z,37.35
2023-04-13T00:05:53.484Z,38.40
2023-04-13T00:06:57.804Z,38.67
2023-04-13T00:08:01.691Z,39.28
2023-04-13T00:09:08.949Z,39.67
2023-04-13T00:10:12.803Z,41.90
2023-04-13T00:11:16.436Z,41.50
2023-04-13T00:12:20.089Z,36.42
2023-04-13T00:13:23.743Z,37.05
2023-04-13T00:14:27.564Z,34.63
2023-04-13T00:15:31.541Z,37.65
2023-04-13T00:16:35.255Z,39.37
2023-04-13T00:17:38.921Z,36.05
2023-04-13T00:18:44.280Z,36.80
2023-04-13T00:19:48.211Z,38.40
2023-04-13T00:20:51.889Z,44.67
2023-04-13T00:21:55.541Z,41.97
2023-04-13T00:22:59.228Z,36.80
2023-04-13T00:24:02.980Z,38.20
2023-04-13T00:25:07.842Z,38.80
2023-04-13T00:26:11.515Z,40.30
2023-04-13T00:27:15.100Z,38.70
2023-04-13T00:28:18.771Z,37.25
2023-04-13T00:29:22.508Z,38.78
2023-04-13T00:30:26.185Z,39.47
2023-04-13T00:31:29.933Z,41.55
2023-04-13T00:32:33.678Z,41.23
2023-04-13T00:33:37.407Z,43.58
2023-04-13T00:34:42.791Z,39.53
2023-04-13T00:35:46.460Z,40.72
2023-04-13T00:36:50.525Z,41.70
2023-04-13T00:37:54.695Z,37.97
2023-04-13T00:38:58.349Z,38.78
2023-04-13T00:40:02.307Z,41.05
2023-04-13T00:41:06.418Z,41.17
2023-04-13T00:42:10.315Z,40.15
2023-04-13T00:43:14.000Z,39.07
2023-04-13T00:44:17.914Z,39.60
2023-04-13T00:45:21.650Z,38.40
2023-04-13T00:46:25.490Z,38.00
2023-04-13T00:47:32.653Z,36.53
2023-04-13T00:48:36.342Z,36.90
2023-04-13T00:49:41.691Z,43.38
2023-04-13T00:50:45.543Z,37.60
2023-04-13T00:51:49.443Z,39.38
2023-04-13T00:52:53.170Z,37.92
2023-04-13T00:53:57.916Z,39.23
2023-04-13T00:55:02.009Z,35.63
2023-04-13T00:56:06.028Z,40.05
2023-04-13T00:57:09.801Z,39.03
2023-04-13T00:58:14.207Z,40.25
2023-04-13T00:59:17.907Z,37.23
2023-04-13T01:00:22.265Z,38.30
2023-04-13T01:01:26.080Z,38.03
2023-04-13T01:02:29.975Z,36.17
2023-04-13T01:03:33.670Z,38.13
2023-04-13T01:04:37.829Z,38.23
2023-04-13T01:05:50.426Z,40.30
2023-04-13T01:07:04.224Z,39.97
2023-04-13T01:08:16.916Z,40.25
2023-04-13T01:09:26.573Z,39.10
2023-04-13T01:10:36.064Z,36.20
2023-04-13T01:11:48.094Z,39.20
2023-04-13T01:13:00.393Z,37.00
2023-04-13T01:14:12.554Z,40.22
2023-04-13T01:15:17.816Z,38.47
2023-04-13T01:16:25.292Z,42.87
2023-04-13T01:18:54.100Z,38.35
2023-04-13T01:20:01.873Z,37.70
2023-04-13T01:21:11.518Z,40.03
2023-04-13T01:22:15.587Z,35.90
2023-04-13T01:23:28.759Z,39.75
2023-04-13T01:24:41.626Z,40.28
2023-04-13T01:25:52.221Z,43.33
2023-04-13T01:27:05.655Z,44.60
2023-04-13T01:28:13.301Z,46.30
2023-04-13T01:29:17.227Z,36.67
2023-04-13T01:30:22.183Z,38.15
2023-04-13T01:31:26.437Z,39.08
2023-04-13T01:32:30.430Z,41.35
2023-04-13T01:33:34.326Z,38.43
2023-04-13T01:34:39.265Z,36.75
2023-04-13T01:35:46.286Z,39.45
2023-04-13T01:36:53.834Z,37.60
2023-04-13T01:37:58.055Z,44.40
2023-04-13T01:39:01.796Z,40.57
2023-04-13T01:40:06.092Z,38.70
2023-04-13T01:41:09.755Z,40.20
2023-04-13T01:42:13.493Z,42.33
2023-04-13T01:43:19.435Z,40.42
2023-04-13T01:44:23.070Z,42.97
2023-04-13T01:45:28.711Z,42.17
2023-04-13T01:46:34.829Z,39.95
2023-04-13T01:47:43.144Z,50.15
2023-04-13T01:48:52.618Z,47.70
2023-04-13T01:50:00.692Z,41.83
2023-04-13T01:51:09.650Z,41.90
2023-04-13T01:52:14.180Z,40.03
2023-04-13T01:53:20.790Z,41.70
2023-04-13T01:54:28.505Z,41.63
2023-04-13T01:55:32.701Z,45.90
2023-04-13T01:56:39.973Z,41.28
2023-04-13T01:57:45.020Z,47.40
2023-04-13T01:58:52.532Z,48.42
2023-04-13T01:59:56.192Z,43.95
2023-04-13T02:00:59.913Z,47.00
2023-04-13T02:02:03.555Z,48.40
2023-04-13T02:03:08.796Z,45.13
2023-04-13T02:04:12.676Z,43.05
2023-04-13T02:05:16.398Z,43.60
2023-04-13T02:06:25.245Z,47.77
2023-04-13T02:07:28.872Z,46.20
2023-04-13T02:08:33.555Z,43.30
2023-04-13T02:09:37.316Z,43.88
2023-04-13T02:10:40.922Z,44.17
2023-04-13T02:11:44.613Z,44.70
2023-04-13T02:12:48.386Z,44.83
2023-04-13T02:13:53.725Z,43.08
2023-04-13T02:14:57.417Z,43.35
2023-04-13T02:16:01.178Z,40.53
2023-04-13T02:17:04.800Z,42.53
2023-04-13T02:18:08.865Z,45.90
2023-04-13T02:19:12.545Z,45.05
2023-04-13T02:20:16.328Z,42.40
2023-04-13T02:21:19.986Z,45.83
2023-04-13T02:22:23.868Z,46.57
2023-04-13T02:23:27.603Z,46.13
2023-04-13T02:24:31.278Z,46.80
2023-04-13T02:25:35.130Z,41.63
2023-04-13T02:26:38.789Z,45.63
2023-04-13T02:27:42.827Z,44.63
2023-04-13T02:28:52.938Z,44.88
2023-04-13T02:29:56.607Z,43.67
2023-04-13T02:31:00.275Z,42.15
2023-04-13T02:32:04.169Z,44.17
2023-04-13T02:33:07.876Z,40.83
2023-04-13T02:34:14.082Z,47.50
2023-04-13T02:35:17.764Z,44.20
2023-04-13T02:36:21.932Z,44.67
2023-04-13T02:37:25.690Z,50.03
2023-04-13T02:38:29.602Z,41.47
2023-04-13T02:39:33.216Z,43.25
2023-04-13T02:40:36.829Z,43.50
2023-04-13T02:41:40.539Z,43.47
2023-04-13T02:42:44.249Z,44.53
2023-04-13T02:43:47.898Z,41.47
2023-04-13T02:44:53.243Z,44.60
2023-04-13T02:45:57.569Z,43.92
2023-04-13T02:47:01.301Z,49.45
2023-04-13T02:48:05.087Z,47.22
2023-04-13T02:49:08.684Z,42.83
2023-04-13T02:50:12.997Z,48.17
2023-04-13T02:51:16.654Z,49.08
2023-04-13T02:52:20.324Z,44.85
2023-04-13T02:53:24.117Z,47.20
2023-04-13T02:54:27.859Z,43.70
2023-04-13T02:55:31.473Z,45.30
2023-04-13T02:56:35.195Z,49.47
2023-04-13T02:57:39.043Z,43.40
2023-04-13T02:58:45.612Z,48.58
2023-04-13T02:59:49.516Z,49.00
2023-04-13T03:00:54.781Z,52.63
2023-04-13T03:01:58.422Z,49.60
2023-04-13T03:03:02.504Z,44.55
2023-04-13T03:04:06.602Z,50.80
2023-04-13T03:05:11.147Z,42.83
2023-04-13T03:06:14.896Z,45.92
2023-04-13T03:07:18.576Z,45.38
2023-04-13T03:08:22.264Z,40.30
2023-04-13T03:09:26.252Z,42.83
2023-04-13T03:10:31.100Z,45.53
2023-04-13T03:11:34.794Z,46.40
2023-04-13T03:12:38.844Z,47.72
2023-04-13T03:13:42.499Z,50.97
2023-04-13T03:14:48.476Z,47.20
2023-04-13T03:15:53.838Z,45.53
2023-04-13T03:17:03.410Z,48.75
2023-04-13T03:18:07.255Z,49.83
2023-04-13T03:19:11.025Z,49.03
2023-04-13T03:20:14.767Z,49.42
2023-04-13T03:21:18.416Z,46.30
2023-04-13T03:22:22.162Z,46.67
2023-04-13T03:23:25.811Z,43.85
2023-04-13T03:24:29.445Z,49.13
2023-04-13T03:25:34.094Z,49.63
2023-04-13T03:26:37.862Z,47.23
2023-04-13T03:27:41.516Z,45.65
2023-04-13T03:28:47.733Z,46.35
2023-04-13T03:29:51.532Z,47.95
2023-04-13T03:30:56.866Z,44.72
2023-04-13T03:32:00.680Z,42.33
2023-04-13T03:33:04.475Z,44.63
2023-04-13T03:34:08.101Z,45.72
2023-04-13T03:35:11.704Z,41.70
2023-04-13T03:36:15.551Z,51.63
2023-04-13T03:37:19.213Z,44.93
2023-04-13T03:38:22.956Z,48.85
2023-04-13T03:39:26.639Z,54.17
2023-04-13T03:40:30.353Z,50.40
2023-04-13T03:41:34.034Z,47.85
2023-04-13T03:42:37.824Z,53.40
2023-04-13T03:43:44.896Z,49.58
2023-04-13T03:44:48.526Z,45.50
2023-04-13T03:45:52.284Z,47.47
2023-04-13T03:46:57.716Z,47.60
2023-04-13T03:48:01.581Z,46.73
2023-04-13T03:49:08.535Z,46.03
2023-04-13T03:50:12.459Z,46.55
2023-04-13T03:51:16.249Z,48.85
2023-04-13T03:52:20.073Z,49.22
2023-04-13T03:53:23.802Z,47.17
2023-04-13T03:54:27.499Z,45.08
2023-04-13T03:55:31.159Z,43.78
2023-04-13T03:56:34.879Z,50.60
2023-04-13T03:57:38.502Z,47.95
2023-04-13T03:58:42.179Z,47.13
2023-04-13T03:59:45.895Z,49.17
2023-04-13T04:00:49.834Z,45.58
2023-04-13T04:01:53.525Z,45.83
2023-04-13T04:02:58.953Z,48.35
2023-04-13T04:04:03.357Z,48.60
2023-04-13T04:05:07.913Z,44.53
2023-04-13T04:06:39.368Z,44.78
2023-04-13T04:07:43.001Z,48.38
2023-04-13T04:08:57.055Z,46.25
2023-04-13T04:10:00.734Z,45.67
2023-04-13T04:11:04.686Z,48.35
2023-04-13T04:12:08.912Z,48.60
2023-04-13T04:13:12.568Z,49.40
2023-04-13T04:14:16.221Z,45.78
2023-04-13T04:15:19.969Z,45.53
2023-04-13T04:16:23.675Z,46.78
2023-04-13T04:17:27.494Z,46.25
2023-04-13T04:18:33.828Z,47.58
2023-04-13T04:19:37.562Z,47.65
2023-04-13T04:20:41.209Z,46.17
2023-04-13T04:21:44.903Z,49.22
2023-04-13T04:22:48.687Z,48.33
2023-04-13T04:23:52.375Z,46.00
2023-04-13T04:24:56.099Z,49.78
2023-04-13T04:26:15.482Z,47.57
2023-04-13T04:27:19.248Z,48.70
2023-04-13T04:28:25.691Z,43.78
2023-04-13T04:29:29.748Z,44.70
2023-04-13T04:30:33.495Z,43.10
2023-04-13T04:31:37.568Z,46.10
2023-04-13T04:32:59.042Z,47.53
2023-04-13T04:34:04.527Z,45.42
2023-04-13T04:35:09.383Z,46.25
2023-04-13T04:36:13.314Z,47.45
2023-04-13T04:37:20.561Z,46.93
2023-04-13T04:38:55.381Z,47.95
2023-04-13T04:39:59.043Z,45.10
2023-04-13T04:41:02.725Z,41.90
2023-04-13T04:42:06.586Z,46.28
2023-04-13T04:43:10.278Z,44.07
2023-04-13T04:44:14.807Z,42.47
2023-04-13T04:45:18.595Z,45.10
2023-04-13T04:46:22.429Z,44.45
2023-04-13T04:47:26.173Z,45.17
2023-04-13T04:48:29.866Z,46.33
2023-04-13T04:49:35.231Z,43.63
2023-04-13T04:50:39.040Z,42.28
2023-04-13T04:51:42.751Z,44.25
2023-04-13T04:52:46.518Z,43.95
2023-04-13T04:53:50.271Z,43.83
2023-04-13T04:54:54.663Z,42.97
2023-04-13T04:55:58.321Z,43.38
2023-04-13T04:57:02.215Z,41.63
2023-04-13T04:58:05.912Z,43.17
2023-04-13T04:59:10.597Z,41.07
2023-04-13T05:00:16.721Z,42.72
2023-04-13T05:01:20.740Z,40.83
2023-04-13T05:02:24.478Z,42.55
2023-04-13T05:03:28.277Z,40.10
2023-04-13T05:04:31.960Z,44.77
2023-04-13T05:05:37.432Z,45.22
2023-04-13T05:06:41.356Z,41.20
2023-04-13T05:07:45.178Z,42.20
2023-04-13T05:08:48.870Z,46.70
2023-04-13T05:09:52.612Z,43.50
2023-04-13T05:10:56.393Z,42.72
2023-04-13T05:12:00.220Z,40.75
2023-04-13T05:13:03.978Z,41.00
2023-04-13T05:14:07.707Z,42.17
2023-04-13T05:15:12.123Z,43.67
2023-04-13T05:16:15.861Z,44.22
2023-04-13T05:17:19.603Z,42.05
2023-04-13T05:18:23.240Z,44.40
2023-04-13T05:19:26.991Z,42.63
2023-04-13T05:20:30.669Z,42.47
2023-04-13T05:21:36.091Z,42.33
2023-04-13T05:22:39.783Z,39.53
2023-04-13T05:23:44.292Z,45.15
2023-04-13T05:24:48.036Z,42.70
2023-04-13T05:25:51.837Z,41.87
2023-04-13T05:26:56.714Z,45.80
2023-04-13T05:28:00.309Z,42.33
2023-04-13T05:29:04.883Z,46.67
2023-04-13T05:30:09.786Z,42.90
2023-04-13T05:31:13.593Z,42.33
2023-04-13T05:32:17.344Z,44.15
2023-04-13T05:33:21.062Z,43.28
2023-04-13T05:34:24.790Z,45.20
2023-04-13T05:35:28.426Z,43.25
2023-04-13T05:36:32.197Z,41.23
2023-04-13T05:37:37.664Z,43.65
2023-04-13T05:38:41.307Z,41.70
2023-04-13T05:39:45.098Z,41.10
2023-04-13T05:40:48.813Z,39.35
2023-04-13T05:41:52.569Z,43.23
2023-04-13T05:42:56.418Z,42.78
2023-04-13T05:44:00.188Z,39.00
2023-04-13T05:45:03.937Z,41.67
2023-04-13T05:46:08.230Z,39.58
2023-04-13T05:47:12.010Z,39.47
2023-04-13T05:48:15.707Z,43.03
2023-04-13T05:49:19.417Z,39.05
2023-04-13T05:50:23.086Z,41.60
2023-04-13T05:51:26.747Z,39.17
2023-04-13T05:52:30.476Z,39.90
2023-04-13T05:53:35.862Z,39.15
2023-04-13T05:54:39.470Z,41.00
2023-04-13T05:55:45.200Z,40.10
2023-04-13T05:56:50.345Z,41.08
2023-04-13T05:57:54.234Z,42.13
2023-04-13T05:58:58.126Z,40.45
2023-04-13T06:00:02.334Z,42.78
2023-04-13T06:01:09.528Z,41.90
2023-04-13T06:02:13.338Z,40.22
2023-04-13T06:03:17.461Z,42.10
2023-04-13T06:04:21.560Z,42.60
2023-04-13T06:05:25.515Z,42.28
2023-04-13T06:06:29.332Z,43.42
2023-04-13T06:07:33.019Z,42.90
2023-04-13T06:08:38.343Z,43.40
2023-04-13T06:09:42.043Z,41.97
2023-04-13T06:10:45.748Z,43.10
2023-04-13T06:11:49.379Z,37.67
2023-04-13T06:12:53.179Z,42.08
2023-04-13T06:13:59.470Z,40.40
2023-04-13T06:15:04.021Z,44.90
2023-04-13T06:16:08.632Z,42.78
2023-04-13T06:17:12.360Z,42.42
2023-04-13T06:18:16.064Z,43.88
2023-04-13T06:19:19.719Z,43.17
2023-04-13T06:20:23.485Z,41.53
2023-04-13T06:21:27.179Z,44.03
2023-04-13T06:22:30.853Z,41.13
2023-04-13T06:23:34.573Z,41.60
2023-04-13T06:24:42.258Z,42.60
2023-04-13T06:25:46.249Z,43.17
2023-04-13T06:26:50.053Z,41.33
2023-04-13T06:27:55.141Z,42.45
2023-04-13T06:28:59.431Z,41.80
2023-04-13T06:30:03.401Z,43.60
2023-04-13T06:31:07.481Z,42.00
2023-04-13T06:32:11.332Z,40.70
2023-04-13T06:33:14.965Z,41.55
2023-04-13T06:34:18.592Z,41.00
2023-04-13T06:35:22.270Z,41.93
2023-04-13T06:36:25.956Z,39.63
2023-04-13T06:37:29.707Z,40.17
2023-04-13T06:38:33.316Z,39.33
2023-04-13T06:39:38.706Z,43.15
2023-04-13T06:40:42.342Z,41.37
2023-04-13T06:41:45.983Z,42.83
2023-04-13T06:42:49.679Z,39.30
2023-04-13T06:43:53.484Z,37.53
2023-04-13T06:44:57.199Z,39.63
2023-04-13T06:46:01.149Z,39.03
2023-04-13T06:47:04.889Z,40.00
2023-04-13T06:48:08.687Z,39.58
2023-04-13T06:49:12.407Z,41.25
2023-04-13T06:50:16.822Z,37.88
2023-04-13T06:51:20.530Z,38.23
2023-04-13T06:52:24.229Z,38.42
2023-04-13T06:53:28.013Z,38.60
2023-04-13T06:54:31.691Z,38.15
2023-04-13T06:55:37.009Z,36.33
2023-04-13T06:56:40.812Z,35.73
2023-04-13T06:57:44.942Z,35.75
2023-04-13T06:58:48.731Z,37.33
2023-04-13T06:59:52.425Z,38.90
2023-04-13T07:00:56.100Z,37.10
2023-04-13T07:02:00.035Z,37.67
2023-04-13T07:03:04.220Z,36.97
2023-04-13T07:04:08.141Z,35.65
2023-04-13T07:05:12.040Z,35.15
2023-04-13T07:06:15.777Z,39.55
2023-04-13T07:07:19.540Z,35.77
2023-04-13T07:08:23.240Z,36.10
2023-04-13T07:09:26.998Z,41.00
2023-04-13T07:10:30.774Z,38.40
2023-04-13T07:11:36.095Z,37.67
2023-04-13T07:12:39.698Z,38.40
2023-04-13T07:13:43.338Z,36.47
2023-04-13T07:14:46.999Z,37.58
2023-04-13T07:15:50.726Z,37.45
2023-04-13T07:16:54.431Z,37.13
2023-04-13T07:17:58.199Z,36.87
2023-04-13T07:19:01.976Z,36.15
2023-04-13T07:20:06.318Z,36.33
2023-04-13T07:21:10.093Z,35.70
2023-04-13T07:22:13.786Z,36.63
2023-04-13T07:23:17.457Z,36.47
2023-04-13T07:24:21.174Z,35.35
2023-04-13T07:25:24.976Z,39.00
2023-04-13T07:26:28.681Z,39.63
2023-04-13T07:27:35.122Z,36.72
2023-04-13T07:28:39.170Z,36.00
2023-04-13T07:29:42.981Z,35.97
2023-04-13T07:30:47.131Z,35.72
2023-04-13T07:31:50.824Z,37.85
2023-04-13T07:32:54.711Z,35.28
2023-04-13T07:33:58.430Z,35.87
2023-04-13T07:35:02.528Z,37.25
2023-04-13T07:36:07.390Z,34.85
2023-04-13T07:37:10.983Z,39.22
2023-04-13T07:38:14.659Z,40.03
2023-04-13T07:39:18.426Z,40.00
2023-04-13T07:40:22.725Z,39.63
2023-04-13T07:41:26.366Z,37.15
2023-04-13T07:42:29.992Z,36.65
2023-04-13T07:43:35.308Z,36.55
2023-04-13T07:44:39.029Z,35.87
2023-04-13T07:45:42.693Z,38.90
2023-04-13T07:46:46.367Z,36.95
2023-04-13T07:47:50.673Z,35.08
2023-04-13T07:48:54.496Z,37.60
2023-04-13T07:49:58.228Z,37.63
2023-04-13T07:51:01.994Z,39.13
2023-04-13T07:52:06.023Z,35.67
2023-04-13T07:53:09.750Z,34.53
2023-04-13T07:54:15.144Z,37.20
2023-04-13T07:55:20.052Z,35.93
2023-04-13T07:56:23.728Z,36.83
2023-04-13T07:57:27.357Z,34.83
2023-04-13T07:58:31.125Z,35.33
2023-04-13T07:59:36.385Z,35.63
2023-04-13T08:00:40.006Z,34.13
2023-04-13T08:01:43.771Z,39.58
2023-04-13T08:02:47.701Z,37.25
2023-04-13T08:03:54.562Z,34.78
2023-04-13T08:04:58.436Z,34.88
2023-04-13T08:06:02.308Z,36.77
2023-04-13T08:07:06.173Z,35.83
2023-04-13T08:08:09.965Z,33.33
2023-04-13T08:09:13.767Z,33.50
2023-04-13T08:10:20.393Z,33.05
2023-04-13T08:11:24.149Z,35.70
2023-04-13T08:12:27.793Z,36.50
2023-04-13T08:13:31.739Z,35.05
2023-04-13T08:14:37.053Z,33.90
2023-04-13T08:15:40.775Z,32.95
2023-04-13T08:16:44.488Z,36.07
2023-04-13T08:17:48.678Z,33.22
2023-04-13T08:18:52.333Z,33.22
2023-04-13T08:19:56.073Z,35.85
2023-04-13T08:20:59.971Z,33.25
2023-04-13T08:22:03.731Z,32.10
2023-04-13T08:23:07.368Z,35.63
2023-04-13T08:24:11.000Z,34.47
2023-04-13T08:25:14.732Z,33.08
2023-04-13T08:26:19.614Z,32.28
2023-04-13T08:27:23.212Z,36.70
2023-04-13T08:28:27.155Z,35.45
2023-04-13T08:29:30.889Z,32.20
2023-04-13T08:30:36.756Z,33.03
2023-04-13T08:31:40.765Z,32.95
2023-04-13T08:32:44.513Z,33.73
2023-04-13T08:33:48.198Z,33.15
2023-04-13T08:34:52.045Z,31.75
2023-04-13T08:35:56.121Z,33.17
2023-04-13T08:36:59.921Z,33.03
2023-04-13T08:38:04.184Z,34.33
2023-04-13T08:39:08.020Z,35.92
2023-04-13T08:40:12.368Z,37.17
2023-04-13T08:41:18.453Z,33.95
2023-04-13T08:42:23.704Z,32.83
2023-04-13T08:43:29.266Z,32.17
2023-04-13T08:44:34.413Z,35.22
2023-04-13T08:45:42.481Z,33.10
2023-04-13T08:46:47.228Z,33.97
2023-04-13T08:47:51.061Z,36.33
2023-04-13T08:48:59.794Z,35.37
2023-04-13T08:50:03.839Z,32.65
2023-04-13T08:51:08.109Z,36.03
2023-04-13T08:52:13.376Z,34.65
2023-04-13T08:53:18.956Z,32.78
2023-04-13T08:54:22.653Z,33.93
2023-04-13T08:55:26.357Z,33.05
2023-04-13T08:56:44.398Z,36.30
2023-04-13T08:57:51.576Z,34.75
2023-04-13T08:58:59.494Z,34.78
2023-04-13T09:00:05.104Z,32.33
2023-04-13T09:01:10.839Z,36.72
2023-04-13T09:02:15.183Z,34.92
2023-04-13T09:03:24.966Z,33.17
2023-04-13T09:04:32.556Z,33.00
2023-04-13T09:05:40.699Z,33.93
2023-04-13T09:06:46.779Z,35.17
2023-04-13T09:07:51.405Z,36.50
2023-04-13T09:08:55.845Z,33.17
2023-04-13T09:10:01.131Z,37.45
2023-04-13T09:11:04.926Z,32.70
2023-04-13T09:12:08.681Z,33.70
2023-04-13T09:13:12.345Z,34.67
2023-04-13T09:14:18.998Z,32.08
2023-04-13T09:15:23.529Z,34.33
2023-04-13T09:16:38.760Z,34.23
2023-04-13T09:17:46.570Z,35.85
2023-04-13T09:18:51.778Z,32.45
2023-04-13T09:20:11.578Z,35.78
2023-04-13T09:21:15.277Z,34.03
2023-04-13T09:22:24.303Z,33.87
2023-04-13T09:23:28.125Z,34.78
2023-04-13T09:24:43.775Z,33.15
2023-04-13T09:25:55.424Z,33.10
2023-04-13T09:26:59.220Z,34.58
2023-04-13T09:28:05.330Z,33.67
2023-04-13T09:29:11.747Z,32.28
2023-04-13T09:30:18.889Z,32.85
2023-04-13T09:31:22.761Z,33.15
2023-04-13T09:32:29.466Z,33.67
2023-04-13T09:33:47.664Z,33.43
2023-04-13T09:35:08.152Z,34.03
2023-04-13T09:36:23.720Z,32.78
2023-04-13T09:37:33.719Z,34.42
2023-04-13T09:38:37.440Z,33.72
2023-04-13T09:39:41.369Z,33.97
2023-04-13T09:40:54.464Z,35.30
2023-04-13T09:42:11.430Z,34.70
2023-04-13T09:43:16.901Z,33.10
2023-04-13T09:44:21.456Z,34.95
2023-04-13T09:45:25.767Z,30.83
2023-04-13T09:46:32.601Z,32.92
2023-04-13T09:47:41.177Z,31.80
2023-04-13T09:48:45.046Z,35.17
2023-04-13T09:49:48.656Z,30.25
2023-04-13T09:51:02.273Z,32.20
2023-04-13T09:52:06.982Z,36.33
2023-04-13T09:53:10.762Z,33.83
2023-04-13T09:54:22.072Z,34.78
2023-04-13T09:55:25.813Z,33.95
2023-04-13T09:56:29.437Z,36.17
2023-04-13T09:57:37.128Z,33.15
2023-04-13T09:58:46.820Z,33.00
2023-04-13T09:59:51.225Z,32.83
2023-04-13T10:00:57.679Z,31.80
2023-04-13T10:02:06.661Z,35.00
2023-04-13T10:03:17.153Z,32.33
2023-04-13T10:04:21.133Z,34.08
2023-04-13T10:05:26.926Z,37.05
2023-04-13T10:06:32.172Z,33.20
2023-04-13T10:07:36.232Z,34.03
2023-04-13T10:08:40.536Z,37.17
2023-04-13T10:09:44.344Z,34.80
2023-04-13T10:10:51.419Z,35.45
2023-04-13T10:11:56.922Z,33.63
2023-04-13T10:13:02.672Z,34.60
2023-04-13T10:14:12.763Z,37.08
2023-04-13T10:15:29.770Z,36.25
2023-04-13T10:17:02.441Z,38.03
2023-04-13T10:18:17.900Z,36.50
2023-04-13T10:19:24.716Z,36.27
2023-04-13T10:20:29.865Z,39.45
2023-04-13T10:21:35.422Z,35.60
2023-04-13T10:22:40.210Z,35.55
2023-04-13T10:23:44.025Z,35.33
2023-04-13T10:24:48.120Z,37.00
2023-04-13T10:25:52.720Z,35.08
2023-04-13T10:26:56.685Z,37.83
2023-04-13T10:28:01.154Z,35.50
2023-04-13T10:29:05.527Z,32.75
2023-04-13T10:30:23.447Z,34.50
2023-04-13T20:01:59.810Z,44.55
2023-04-13T20:03:03.752Z,45.45
2023-04-13T20:04:07.939Z,42.28
2023-04-13T20:05:11.822Z,40.60
2023-04-13T20:06:15.587Z,43.73
2023-04-13T20:07:19.420Z,38.95
2023-04-13T20:08:23.081Z,41.75
2023-04-13T20:09:26.764Z,38.55
2023-04-13T20:10:30.505Z,42.33
2023-04-13T20:11:35.870Z,42.40
2023-04-13T20:12:39.687Z,43.70
2023-04-13T20:13:43.409Z,39.08
2023-04-13T20:14:47.158Z,38.40
2023-04-13T20:15:50.884Z,41.17
2023-04-13T20:16:54.713Z,40.33
2023-04-13T20:18:00.117Z,39.03
2023-04-13T20:19:03.855Z,38.15
2023-04-13T20:20:08.310Z,40.03
2023-04-13T20:21:12.124Z,42.15
2023-04-13T20:22:15.699Z,41.77
2023-04-13T20:23:19.342Z,40.85
2023-04-13T20:24:22.971Z,46.00
2023-04-13T20:25:26.883Z,41.25
2023-04-13T20:26:31.431Z,41.15
2023-04-13T20:27:35.055Z,46.50
2023-04-13T20:28:38.736Z,40.20
2023-04-13T20:29:42.427Z,42.17
2023-04-13T20:30:46.110Z,41.45
2023-04-13T20:31:49.975Z,40.00
2023-04-13T20:32:53.728Z,39.33
2023-04-13T20:33:59.331Z,35.80
2023-04-13T20:35:03.229Z,39.72
2023-04-13T20:36:07.058Z,39.78
2023-04-13T20:37:10.698Z,40.55
2023-04-13T20:38:14.368Z,39.43
2023-04-13T20:39:18.095Z,35.58
2023-04-13T20:40:21.926Z,36.80
2023-04-13T20:41:25.597Z,37.70
2023-04-13T20:42:31.061Z,36.90
2023-04-13T20:43:34.715Z,38.17
2023-04-13T20:44:38.379Z,35.35
2023-04-13T20:45:42.007Z,44.17
2023-04-13T20:46:45.750Z,40.78
2023-04-13T20:47:50.162Z,43.78
2023-04-13T20:48:53.966Z,40.10
2023-04-13T20:49:59.228Z,41.72
2023-04-13T20:51:02.909Z,42.45
2023-04-13T20:52:06.607Z,39.72
2023-04-13T20:53:16.358Z,42.15
2023-04-13T20:54:20.209Z,40.57
2023-04-13T20:55:24.200Z,39.95
2023-04-13T20:56:27.849Z,43.03
2023-04-13T20:57:32.037Z,38.95
2023-04-13T20:58:36.067Z,43.35
2023-04-13T20:59:39.829Z,40.50
2023-04-13T21:00:43.529Z,40.55
2023-04-13T21:01:47.372Z,42.35
2023-04-13T21:02:51.340Z,41.03
2023-04-13T21:03:55.143Z,41.22
2023-04-13T21:05:00.516Z,46.47
2023-04-13T21:06:04.229Z,39.20
2023-04-13T21:07:07.923Z,44.92
2023-04-13T21:08:12.466Z,41.55
2023-04-13T21:09:16.171Z,42.83
2023-04-13T21:10:20.102Z,43.30
2023-04-13T21:11:23.713Z,42.58
2023-04-13T21:12:28.380Z,42.75
2023-04-13T21:13:32.169Z,39.70
2023-04-13T21:14:35.865Z,38.22
2023-04-13T21:15:39.627Z,39.00
2023-04-13T21:16:43.353Z,35.65
2023-04-13T21:17:47.071Z,39.10
2023-04-13T21:18:50.700Z,39.22
2023-04-13T21:19:54.494Z,37.17
2023-04-13T21:20:59.889Z,43.00
2023-04-13T21:22:03.493Z,39.15
2023-04-13T21:23:07.230Z,40.55
2023-04-13T21:24:11.125Z,39.85
2023-04-13T21:25:14.812Z,45.15
2023-04-13T21:26:18.640Z,39.13
2023-04-13T21:27:22.358Z,40.78
2023-04-13T21:28:26.208Z,36.88
2023-04-13T21:29:29.899Z,38.08
2023-04-13T21:30:33.614Z,37.00
2023-04-13T21:31:37.721Z,35.53
2023-04-13T21:32:41.490Z,37.33
2023-04-13T21:33:45.994Z,40.47
2023-04-13T21:34:51.947Z,47.65
2023-04-13T21:35:55.617Z,39.88
2023-04-13T21:37:00.950Z,44.60
2023-04-13T21:38:04.637Z,42.17
2023-04-13T21:39:08.233Z,37.05
2023-04-13T21:40:12.419Z,38.78
2023-04-13T21:41:16.437Z,39.17
2023-04-13T21:42:22.533Z,37.73
2023-04-13T21:43:26.477Z,41.85
2023-04-13T21:44:31.023Z,44.00
2023-04-13T21:45:34.825Z,42.30
2023-04-13T21:46:38.488Z,43.38
2023-04-13T21:47:42.206Z,40.20
2023-04-13T21:48:45.998Z,38.83
2023-04-13T21:49:49.712Z,39.88
2023-04-13T21:50:53.417Z,35.83
2023-04-13T21:51:57.036Z,37.90
2023-04-13T21:53:02.737Z,39.27
2023-04-13T21:54:06.572Z,42.88
2023-04-13T21:55:10.848Z,38.88
2023-04-13T21:56:14.603Z,41.53
2023-04-13T21:57:18.291Z,46.25
2023-04-13T21:58:22.095Z,42.03
2023-04-13T21:59:25.757Z,42.15
2023-04-13T22:00:29.643Z,43.67
2023-04-13T22:01:33.392Z,42.97
2023-04-13T22:02:37.167Z,44.42
2023-04-13T22:03:42.460Z,40.33
2023-04-13T22:04:46.245Z,45.97
2023-04-13T22:05:49.995Z,39.80
2023-04-13T22:06:53.662Z,47.97
2023-04-13T22:07:57.375Z,44.67
2023-04-13T22:09:02.981Z,45.90
2023-04-13T22:10:07.577Z,38.60
2023-04-13T22:11:11.419Z,42.17
2023-04-13T22:12:15.062Z,41.28
2023-04-13T22:13:18.678Z,39.13
2023-04-13T22:14:22.419Z,43.73
2023-04-13T22:15:26.128Z,42.55
2023-04-13T22:16:29.738Z,44.83
2023-04-13T22:17:33.439Z,46.65
2023-04-13T22:18:37.138Z,43.45
2023-04-13T22:19:40.770Z,46.90
2023-04-13T22:20:44.454Z,42.53
2023-04-13T22:21:48.140Z,43.90
2023-04-13T22:22:51.813Z,44.40
2023-04-13T22:23:55.562Z,48.53
2023-04-13T22:25:00.930Z,47.87
2023-04-13T22:26:04.780Z,46.55
2023-04-13T22:27:08.472Z,48.97
2023-04-13T22:28:12.155Z,49.58
2023-04-13T22:29:16.189Z,40.38
2023-04-13T22:30:20.060Z,40.93
2023-04-13T22:31:23.775Z,44.75
2023-04-13T22:32:29.146Z,47.17
2023-04-13T22:33:32.863Z,45.70
2023-04-13T22:34:36.598Z,47.88
2023-04-13T22:35:40.280Z,48.43
2023-04-13T22:36:43.909Z,44.92
2023-04-13T22:37:47.541Z,42.28
2023-04-13T22:38:51.395Z,40.63
2023-04-13T22:39:55.142Z,48.95
2023-04-13T22:41:05.900Z,44.90
2023-04-13T22:42:09.541Z,41.42
2023-04-13T22:43:13.154Z,51.60
2023-04-13T22:44:16.833Z,44.75
2023-04-13T22:45:20.776Z,43.70
2023-04-13T22:46:24.582Z,50.53
2023-04-13T22:47:28.369Z,50.50
2023-04-13T22:48:32.177Z,49.95
2023-04-13T22:49:35.928Z,49.33
2023-04-13T22:50:39.857Z,46.97
2023-04-13T22:51:43.531Z,50.33
2023-04-13T22:52:47.325Z,48.35
2023-04-13T22:53:51.017Z,50.50
2023-04-13T22:54:55.360Z,51.10
2023-04-13T22:56:00.940Z,50.50
2023-04-13T22:57:05.302Z,48.80
2023-04-13T22:58:09.188Z,46.50
2023-04-13T22:59:12.837Z,47.85
2023-04-13T23:00:17.022Z,51.05
2023-04-13T23:01:20.737Z,46.33
2023-04-13T23:02:24.578Z,47.97
2023-04-13T23:03:28.529Z,49.40
2023-04-13T23:04:32.488Z,47.95
2023-04-13T23:05:36.256Z,49.17
2023-04-13T23:06:39.969Z,46.00
2023-04-13T23:07:43.596Z,49.03
2023-04-13T23:08:47.250Z,52.83
2023-04-13T23:09:52.555Z,49.75
2023-04-13T23:10:56.229Z,48.30
2023-04-13T23:12:01.536Z,50.10
2023-04-13T23:13:05.291Z,46.37
2023-04-13T23:14:08.990Z,50.03
2023-04-13T23:15:13.623Z,47.92
2023-04-13T23:16:17.309Z,52.80
2023-04-13T23:17:21.010Z,45.75
2023-04-13T23:18:24.781Z,46.53
2023-04-13T23:19:28.444Z,48.47
2023-04-13T23:20:32.790Z,50.60
2023-04-13T23:21:36.496Z,51.40
2023-04-13T23:22:40.206Z,48.25
2023-04-13T23:23:43.896Z,48.40
2023-04-13T23:24:47.634Z,50.60
2023-04-13T23:25:51.340Z,48.45
2023-04-13T23:26:55.105Z,51.45